sensor_id;sensor_type;location;lat;lon;timestamp;temperature;humidity
9482;DHT22;4779;48.062;11.672;2023-07-09T00:00:41;20.80;97.90
9482;DHT22;4779;48.062;11.672;2023-07-09T00:03:11;20.80;97.80
9482;DHT22;4779;48.062;11.672;2023-07-09T00:05:38;20.80;97.90
9482;DHT22;4779;48.062;11.672;2023-07-09T00:08:05;20.80;98.00
9482;DHT22;4779;48.062;11.672;2023-07-09T00:10:33;20.70;98.10
9482;DHT22;4779;48.062;11.672;2023-07-09T00:13:01;20.70;98.40
9482;DHT22;4779;48.062;11.672;2023-07-09T00:15:27;20.70;98.30
9482;DHT22;4779;48.062;11.672;2023-07-09T00:17:54;20.70;98.60
9482;DHT22;4779;48.062;11.672;2023-07-09T00:20:21;20.60;98.70
9482;DHT22;4779;48.062;11.672;2023-07-09T00:22:48;20.60;98.80
9482;DHT22;4779;48.062;11.672;2023-07-09T00:25:19;20.60;98.90
9482;DHT22;4779;48.062;11.672;2023-07-09T00:27:47;20.50;99.10
9482;DHT22;4779;48.062;11.672;2023-07-09T00:30:20;20.50;99.20
9482;DHT22;4779;48.062;11.672;2023-07-09T00:32:48;20.50;99.40
9482;DHT22;4779;48.062;11.672;2023-07-09T00:35:15;20.40;99.40
9482;DHT22;4779;48.062;11.672;2023-07-09T00:37:43;20.40;99.60
9482;DHT22;4779;48.062;11.672;2023-07-09T00:40:14;20.40;99.60
9482;DHT22;4779;48.062;11.672;2023-07-09T00:42:44;20.40;99.70
9482;DHT22;4779;48.062;11.672;2023-07-09T00:45:19;20.30;99.80
9482;DHT22;4779;48.062;11.672;2023-07-09T00:47:50;20.30;99.90
9482;DHT22;4779;48.062;11.672;2023-07-09T00:50:30;20.30;99.90
9482;DHT22;4779;48.062;11.672;2023-07-09T00:53:02;20.30;99.90
9482;DHT22;4779;48.062;11.672;2023-07-09T00:55:38;20.30;99.90
9482;DHT22;4779;48.062;11.672;2023-07-09T00:58:09;20.30;99.90
9482;DHT22;4779;48.062;11.672;2023-07-09T01:00:43;20.30;99.90
9482;DHT22;4779;48.062;11.672;2023-07-09T01:03:17;20.30;99.90
9482;DHT22;4779;48.062;11.672;2023-07-09T01:05:47;20.30;99.90
9482;DHT22;4779;48.062;11.672;2023-07-09T01:08:18;20.20;99.90
9482;DHT22;4779;48.062;11.672;2023-07-09T01:10:45;20.10;99.90
9482;DHT22;4779;48.062;11.672;2023-07-09T01:13:12;20.10;99.90
9482;DHT22;4779;48.062;11.672;2023-07-09T01:15:41;20.10;99.90
9482;DHT22;4779;48.062;11.672;2023-07-09T01:18:08;20.00;99.90
9482;DHT22;4779;48.062;11.672;2023-07-09T01:20:38;20.00;99.90
9482;DHT22;4779;48.062;11.672;2023-07-09T01:23:07;20.00;99.90
9482;DHT22;4779;48.062;11.672;2023-07-09T01:25:35;19.90;99.90
9482;DHT22;4779;48.062;11.672;2023-07-09T01:28:02;19.90;99.90
9482;DHT22;4779;48.062;11.672;2023-07-09T01:30:32;19.90;99.90
9482;DHT22;4779;48.062;11.672;2023-07-09T01:33:01;19.80;99.90
9482;DHT22;4779;48.062;11.672;2023-07-09T01:35:30;19.80;99.90
9482;DHT22;4779;48.062;11.672;2023-07-09T01:37:58;19.80;99.90
9482;DHT22;4779;48.062;11.672;2023-07-09T01:40:27;19.70;99.90
9482;DHT22;4779;48.062;11.672;2023-07-09T01:42:56;19.70;99.90
9482;DHT22;4779;48.062;11.672;2023-07-09T01:45:24;19.80;99.90
9482;DHT22;4779;48.062;11.672;2023-07-09T01:47:51;19.70;99.90
9482;DHT22;4779;48.062;11.672;2023-07-09T01:50:21;19.70;99.90
9482;DHT22;4779;48.062;11.672;2023-07-09T01:52:50;19.60;99.90
9482;DHT22;4779;48.062;11.672;2023-07-09T01:55:17;19.60;99.90
9482;DHT22;4779;48.062;11.672;2023-07-09T01:57:46;19.60;99.90
9482;DHT22;4779;48.062;11.672;2023-07-09T02:00:15;19.60;99.90
9482;DHT22;4779;48.062;11.672;2023-07-09T02:02:43;19.60;99.90
9482;DHT22;4779;48.062;11.672;2023-07-09T02:05:12;19.50;99.90
9482;DHT22;4779;48.062;11.672;2023-07-09T02:07:40;19.50;99.90
9482;DHT22;4779;48.062;11.672;2023-07-09T02:10:07;19.50;99.90
9482;DHT22;4779;48.062;11.672;2023-07-09T02:12:34;19.40;99.90
9482;DHT22;4779;48.062;11.672;2023-07-09T02:15:03;19.50;99.90
9482;DHT22;4779;48.062;11.672;2023-07-09T02:17:30;19.40;99.90
9482;DHT22;4779;48.062;11.672;2023-07-09T02:19:57;19.40;99.90
9482;DHT22;4779;48.062;11.672;2023-07-09T02:22:23;19.40;99.90
9482;DHT22;4779;48.062;11.672;2023-07-09T02:24:50;19.40;99.90
9482;DHT22;4779;48.062;11.672;2023-07-09T02:27:19;19.40;99.90
9482;DHT22;4779;48.062;11.672;2023-07-09T02:29:46;19.40;99.90
9482;DHT22;4779;48.062;11.672;2023-07-09T02:32:19;19.40;99.90
9482;DHT22;4779;48.062;11.672;2023-07-09T02:34:46;19.50;99.90
9482;DHT22;4779;48.062;11.672;2023-07-09T02:37:15;19.40;99.90
9482;DHT22;4779;48.062;11.672;2023-07-09T02:39:43;19.40;99.90
9482;DHT22;4779;48.062;11.672;2023-07-09T02:42:12;19.30;99.90
9482;DHT22;4779;48.062;11.672;2023-07-09T02:44:39;19.20;99.90
9482;DHT22;4779;48.062;11.672;2023-07-09T02:47:07;19.10;99.90
9482;DHT22;4779;48.062;11.672;2023-07-09T02:49:35;19.20;99.90
9482;DHT22;4779;48.062;11.672;2023-07-09T02:52:03;19.10;99.90
9482;DHT22;4779;48.062;11.672;2023-07-09T02:54:30;19.10;99.90
9482;DHT22;4779;48.062;11.672;2023-07-09T02:56:57;19.10;99.90
9482;DHT22;4779;48.062;11.672;2023-07-09T02:59:24;19.00;99.90
9482;DHT22;4779;48.062;11.672;2023-07-09T03:01:53;19.00;99.90
9482;DHT22;4779;48.062;11.672;2023-07-09T03:04:20;19.00;99.90
9482;DHT22;4779;48.062;11.672;2023-07-09T03:06:48;19.00;99.90
9482;DHT22;4779;48.062;11.672;2023-07-09T03:09:15;19.00;99.90
9482;DHT22;4779;48.062;11.672;2023-07-09T03:11:42;19.00;99.90
9482;DHT22;4779;48.062;11.672;2023-07-09T03:14:08;19.10;99.90
9482;DHT22;4779;48.062;11.672;2023-07-09T03:16:35;19.10;99.90
9482;DHT22;4779;48.062;11.672;2023-07-09T03:19:03;19.10;99.90
9482;DHT22;4779;48.062;11.672;2023-07-09T03:21:31;19.10;99.90
9482;DHT22;4779;48.062;11.672;2023-07-09T03:23:59;19.00;99.90
9482;DHT22;4779;48.062;11.672;2023-07-09T03:26:26;18.90;99.90
9482;DHT22;4779;48.062;11.672;2023-07-09T03:28:54;18.90;99.90
9482;DHT22;4779;48.062;11.672;2023-07-09T03:31:21;18.80;99.90
9482;DHT22;4779;48.062;11.672;2023-07-09T03:33:48;18.80;99.90
9482;DHT22;4779;48.062;11.672;2023-07-09T03:36:16;18.80;99.90
9482;DHT22;4779;48.062;11.672;2023-07-09T03:38:43;18.80;99.90
9482;DHT22;4779;48.062;11.672;2023-07-09T03:41:11;18.80;99.90
9482;DHT22;4779;48.062;11.672;2023-07-09T03:43:38;18.80;99.90
9482;DHT22;4779;48.062;11.672;2023-07-09T03:46:04;18.80;99.90
9482;DHT22;4779;48.062;11.672;2023-07-09T03:48:31;18.80;99.90
9482;DHT22;4779;48.062;11.672;2023-07-09T03:50:58;18.80;99.90
9482;DHT22;4779;48.062;11.672;2023-07-09T03:53:25;18.90;99.90
9482;DHT22;4779;48.062;11.672;2023-07-09T03:55:54;18.90;99.90
9482;DHT22;4779;48.062;11.672;2023-07-09T03:58:23;18.90;99.90
9482;DHT22;4779;48.062;11.672;2023-07-09T04:00:51;18.90;99.90
9482;DHT22;4779;48.062;11.672;2023-07-09T04:03:18;18.90;99.90
9482;DHT22;4779;48.062;11.672;2023-07-09T04:05:44;18.90;99.90
9482;DHT22;4779;48.062;11.672;2023-07-09T04:08:11;18.90;99.90
9482;DHT22;4779;48.062;11.672;2023-07-09T04:10:38;19.00;99.90
9482;DHT22;4779;48.062;11.672;2023-07-09T04:13:05;19.00;99.90
9482;DHT22;4779;48.062;11.672;2023-07-09T04:15:33;19.00;99.90
9482;DHT22;4779;48.062;11.672;2023-07-09T04:18:00;19.00;99.90
9482;DHT22;4779;48.062;11.672;2023-07-09T04:20:27;19.00;99.90
9482;DHT22;4779;48.062;11.672;2023-07-09T04:22:54;19.10;99.90
9482;DHT22;4779;48.062;11.672;2023-07-09T04:25:21;19.10;99.90
9482;DHT22;4779;48.062;11.672;2023-07-09T04:27:48;19.10;99.90
9482;DHT22;4779;48.062;11.672;2023-07-09T04:30:16;19.10;99.90
9482;DHT22;4779;48.062;11.672;2023-07-09T04:32:45;19.10;99.90
9482;DHT22;4779;48.062;11.672;2023-07-09T04:35:12;19.10;99.90
9482;DHT22;4779;48.062;11.672;2023-07-09T04:37:40;19.10;99.90
9482;DHT22;4779;48.062;11.672;2023-07-09T04:40:08;19.20;99.90
9482;DHT22;4779;48.062;11.672;2023-07-09T04:42:37;19.20;99.90
9482;DHT22;4779;48.062;11.672;2023-07-09T04:45:07;19.30;99.90
9482;DHT22;4779;48.062;11.672;2023-07-09T04:47:34;19.30;99.90
9482;DHT22;4779;48.062;11.672;2023-07-09T04:50:03;19.40;99.90
9482;DHT22;4779;48.062;11.672;2023-07-09T04:52:30;19.50;99.90
9482;DHT22;4779;48.062;11.672;2023-07-09T04:54:57;19.50;99.90
9482;DHT22;4779;48.062;11.672;2023-07-09T04:57:26;19.60;99.90
9482;DHT22;4779;48.062;11.672;2023-07-09T04:59:53;19.60;99.90
9482;DHT22;4779;48.062;11.672;2023-07-09T05:02:20;19.70;99.90
9482;DHT22;4779;48.062;11.672;2023-07-09T05:04:47;19.90;99.90
9482;DHT22;4779;48.062;11.672;2023-07-09T05:07:15;20.00;99.90
9482;DHT22;4779;48.062;11.672;2023-07-09T05:09:42;20.10;99.90
9482;DHT22;4779;48.062;11.672;2023-07-09T05:12:10;20.20;99.90
9482;DHT22;4779;48.062;11.672;2023-07-09T05:14:36;20.30;99.90
9482;DHT22;4779;48.062;11.672;2023-07-09T05:17:04;20.40;99.90
9482;DHT22;4779;48.062;11.672;2023-07-09T05:19:31;20.60;99.90
9482;DHT22;4779;48.062;11.672;2023-07-09T05:21:58;20.60;99.90
9482;DHT22;4779;48.062;11.672;2023-07-09T05:24:26;20.70;99.90
9482;DHT22;4779;48.062;11.672;2023-07-09T05:26:53;20.80;99.90
9482;DHT22;4779;48.062;11.672;2023-07-09T05:29:20;20.90;99.90
9482;DHT22;4779;48.062;11.672;2023-07-09T05:31:47;21.10;99.90
9482;DHT22;4779;48.062;11.672;2023-07-09T05:34:14;21.20;99.90
9482;DHT22;4779;48.062;11.672;2023-07-09T05:36:41;21.30;99.90
9482;DHT22;4779;48.062;11.672;2023-07-09T05:39:07;21.40;99.90
9482;DHT22;4779;48.062;11.672;2023-07-09T05:41:36;21.40;99.90
9482;DHT22;4779;48.062;11.672;2023-07-09T05:44:03;21.60;99.90
9482;DHT22;4779;48.062;11.672;2023-07-09T05:46:34;21.60;99.90
9482;DHT22;4779;48.062;11.672;2023-07-09T05:49:02;21.60;99.90
9482;DHT22;4779;48.062;11.672;2023-07-09T05:51:29;21.80;99.90
9482;DHT22;4779;48.062;11.672;2023-07-09T05:53:56;21.90;99.90
9482;DHT22;4779;48.062;11.672;2023-07-09T05:56:23;22.00;99.90
9482;DHT22;4779;48.062;11.672;2023-07-09T05:58:51;22.10;99.90
9482;DHT22;4779;48.062;11.672;2023-07-09T06:01:19;22.20;99.90
9482;DHT22;4779;48.062;11.672;2023-07-09T06:03:46;22.30;99.90
9482;DHT22;4779;48.062;11.672;2023-07-09T06:06:13;22.50;99.90
9482;DHT22;4779;48.062;11.672;2023-07-09T06:08:39;22.50;99.90
9482;DHT22;4779;48.062;11.672;2023-07-09T06:11:06;22.60;99.90
9482;DHT22;4779;48.062;11.672;2023-07-09T06:13:34;22.70;99.90
9482;DHT22;4779;48.062;11.672;2023-07-09T06:16:02;22.80;99.90
9482;DHT22;4779;48.062;11.672;2023-07-09T06:18:29;22.90;99.90
9482;DHT22;4779;48.062;11.672;2023-07-09T06:20:58;23.10;99.90
9482;DHT22;4779;48.062;11.672;2023-07-09T06:23:25;23.30;99.90
9482;DHT22;4779;48.062;11.672;2023-07-09T06:25:52;23.40;99.90
9482;DHT22;4779;48.062;11.672;2023-07-09T06:28:21;23.40;99.90
9482;DHT22;4779;48.062;11.672;2023-07-09T06:30:49;23.60;99.60
9482;DHT22;4779;48.062;11.672;2023-07-09T06:33:18;23.70;99.70
9482;DHT22;4779;48.062;11.672;2023-07-09T06:35:49;23.90;99.60
9482;DHT22;4779;48.062;11.672;2023-07-09T06:38:16;23.90;98.50
9482;DHT22;4779;48.062;11.672;2023-07-09T06:40:44;24.00;98.20
9482;DHT22;4779;48.062;11.672;2023-07-09T06:43:11;24.20;98.30
9482;DHT22;4779;48.062;11.672;2023-07-09T06:45:38;24.40;98.90
9482;DHT22;4779;48.062;11.672;2023-07-09T06:48:05;24.40;97.30
9482;DHT22;4779;48.062;11.672;2023-07-09T06:50:36;24.50;96.80
9482;DHT22;4779;48.062;11.672;2023-07-09T06:53:03;24.60;95.60
9482;DHT22;4779;48.062;11.672;2023-07-09T06:55:30;24.60;95.30
9482;DHT22;4779;48.062;11.672;2023-07-09T06:57:57;24.80;95.20
9482;DHT22;4779;48.062;11.672;2023-07-09T07:00:24;24.90;94.60
9482;DHT22;4779;48.062;11.672;2023-07-09T07:02:51;25.00;93.80
9482;DHT22;4779;48.062;11.672;2023-07-09T07:05:18;25.10;93.60
9482;DHT22;4779;48.062;11.672;2023-07-09T07:07:46;25.10;93.40
9482;DHT22;4779;48.062;11.672;2023-07-09T07:10:13;25.20;93.30
9482;DHT22;4779;48.062;11.672;2023-07-09T07:12:42;25.20;93.80
9482;DHT22;4779;48.062;11.672;2023-07-09T07:15:11;25.30;93.80
9482;DHT22;4779;48.062;11.672;2023-07-09T07:17:39;25.50;94.60
9482;DHT22;4779;48.062;11.672;2023-07-09T07:20:07;25.70;92.40
9482;DHT22;4779;48.062;11.672;2023-07-09T07:22:34;25.90;91.20
9482;DHT22;4779;48.062;11.672;2023-07-09T07:25:03;26.00;92.50
9482;DHT22;4779;48.062;11.672;2023-07-09T07:27:30;26.10;92.70
9482;DHT22;4779;48.062;11.672;2023-07-09T07:29:56;26.20;91.30
9482;DHT22;4779;48.062;11.672;2023-07-09T07:32:24;26.30;91.30
9482;DHT22;4779;48.062;11.672;2023-07-09T07:34:50;26.40;90.60
9482;DHT22;4779;48.062;11.672;2023-07-09T07:37:19;26.50;89.30
9482;DHT22;4779;48.062;11.672;2023-07-09T07:39:46;26.50;90.70
9482;DHT22;4779;48.062;11.672;2023-07-09T07:42:14;26.40;91.30
9482;DHT22;4779;48.062;11.672;2023-07-09T07:44:41;26.50;90.10
9482;DHT22;4779;48.062;11.672;2023-07-09T07:47:08;26.70;87.00
9482;DHT22;4779;48.062;11.672;2023-07-09T07:49:35;26.70;90.10
9482;DHT22;4779;48.062;11.672;2023-07-09T07:52:03;26.90;90.50
9482;DHT22;4779;48.062;11.672;2023-07-09T07:54:30;26.90;88.30
9482;DHT22;4779;48.062;11.672;2023-07-09T07:56:57;27.00;88.90
9482;DHT22;4779;48.062;11.672;2023-07-09T07:59:25;27.10;88.00
9482;DHT22;4779;48.062;11.672;2023-07-09T08:01:52;27.20;88.60
9482;DHT22;4779;48.062;11.672;2023-07-09T08:04:19;27.30;88.70
9482;DHT22;4779;48.062;11.672;2023-07-09T08:06:46;27.40;83.80
9482;DHT22;4779;48.062;11.672;2023-07-09T08:09:15;27.50;86.60
9482;DHT22;4779;48.062;11.672;2023-07-09T08:11:42;27.60;88.90
9482;DHT22;4779;48.062;11.672;2023-07-09T08:14:10;27.70;87.50
9482;DHT22;4779;48.062;11.672;2023-07-09T08:16:45;27.60;84.90
9482;DHT22;4779;48.062;11.672;2023-07-09T08:19:20;27.70;85.10
9482;DHT22;4779;48.062;11.672;2023-07-09T08:21:47;28.00;83.60
9482;DHT22;4779;48.062;11.672;2023-07-09T08:24:13;28.20;84.30
9482;DHT22;4779;48.062;11.672;2023-07-09T08:26:41;28.30;79.00
9482;DHT22;4779;48.062;11.672;2023-07-09T08:29:07;28.50;83.20
9482;DHT22;4779;48.062;11.672;2023-07-09T08:31:34;28.60;78.80
9482;DHT22;4779;48.062;11.672;2023-07-09T08:34:05;28.60;79.70
9482;DHT22;4779;48.062;11.672;2023-07-09T08:36:32;28.70;78.30
9482;DHT22;4779;48.062;11.672;2023-07-09T08:39:01;28.70;79.10
9482;DHT22;4779;48.062;11.672;2023-07-09T08:41:37;28.70;77.50
9482;DHT22;4779;48.062;11.672;2023-07-09T08:44:26;28.90;77.30
9482;DHT22;4779;48.062;11.672;2023-07-09T08:47:02;29.00;75.60
9482;DHT22;4779;48.062;11.672;2023-07-09T08:49:40;29.10;80.70
9482;DHT22;4779;48.062;11.672;2023-07-09T08:52:14;29.20;76.90
9482;DHT22;4779;48.062;11.672;2023-07-09T08:54:43;29.40;74.30
9482;DHT22;4779;48.062;11.672;2023-07-09T08:57:17;29.60;74.50
9482;DHT22;4779;48.062;11.672;2023-07-09T08:59:46;29.70;74.60
9482;DHT22;4779;48.062;11.672;2023-07-09T09:02:19;29.90;75.20
9482;DHT22;4779;48.062;11.672;2023-07-09T09:04:50;30.10;74.90
9482;DHT22;4779;48.062;11.672;2023-07-09T09:07:21;30.30;74.10
9482;DHT22;4779;48.062;11.672;2023-07-09T09:09:56;30.50;72.70
9482;DHT22;4779;48.062;11.672;2023-07-09T09:12:26;30.70;70.80
9482;DHT22;4779;48.062;11.672;2023-07-09T09:14:58;30.90;69.00
9482;DHT22;4779;48.062;11.672;2023-07-09T09:17:27;31.00;69.10
9482;DHT22;4779;48.062;11.672;2023-07-09T09:19:58;31.20;73.70
9482;DHT22;4779;48.062;11.672;2023-07-09T09:22:30;31.40;66.10
9482;DHT22;4779;48.062;11.672;2023-07-09T09:25:03;31.60;72.10
9482;DHT22;4779;48.062;11.672;2023-07-09T09:27:31;31.80;68.90
9482;DHT22;4779;48.062;11.672;2023-07-09T09:29:58;32.00;69.10
9482;DHT22;4779;48.062;11.672;2023-07-09T09:32:27;32.00;69.60
9482;DHT22;4779;48.062;11.672;2023-07-09T09:34:56;32.10;67.00
9482;DHT22;4779;48.062;11.672;2023-07-09T09:37:26;32.20;65.80
9482;DHT22;4779;48.062;11.672;2023-07-09T09:39:54;32.20;61.40
9482;DHT22;4779;48.062;11.672;2023-07-09T09:42:23;32.40;65.10
9482;DHT22;4779;48.062;11.672;2023-07-09T09:44:54;32.20;61.10
9482;DHT22;4779;48.062;11.672;2023-07-09T09:47:21;32.30;64.70
9482;DHT22;4779;48.062;11.672;2023-07-09T09:49:48;32.40;67.10
9482;DHT22;4779;48.062;11.672;2023-07-09T09:52:18;32.60;67.00
9482;DHT22;4779;48.062;11.672;2023-07-09T09:54:50;32.80;67.70
9482;DHT22;4779;48.062;11.672;2023-07-09T09:57:20;33.10;69.70
9482;DHT22;4779;48.062;11.672;2023-07-09T09:59:48;33.30;62.90
9482;DHT22;4779;48.062;11.672;2023-07-09T10:02:17;33.50;67.20
9482;DHT22;4779;48.062;11.672;2023-07-09T10:04:45;33.70;66.30
9482;DHT22;4779;48.062;11.672;2023-07-09T10:07:21;33.70;61.20
9482;DHT22;4779;48.062;11.672;2023-07-09T10:09:50;33.80;61.40
9482;DHT22;4779;48.062;11.672;2023-07-09T10:12:32;34.00;65.70
9482;DHT22;4779;48.062;11.672;2023-07-09T10:15:11;34.10;64.10
9482;DHT22;4779;48.062;11.672;2023-07-09T10:17:43;34.30;63.30
9482;DHT22;4779;48.062;11.672;2023-07-09T10:20:18;34.50;62.00
9482;DHT22;4779;48.062;11.672;2023-07-09T10:22:52;34.80;64.00
9482;DHT22;4779;48.062;11.672;2023-07-09T10:25:29;34.90;61.10
9482;DHT22;4779;48.062;11.672;2023-07-09T10:31:03;35.10;58.80
9482;DHT22;4779;48.062;11.672;2023-07-09T10:33:41;35.20;59.30
9482;DHT22;4779;48.062;11.672;2023-07-09T10:36:21;35.30;61.90
9482;DHT22;4779;48.062;11.672;2023-07-09T10:38:56;35.20;54.50
9482;DHT22;4779;48.062;11.672;2023-07-09T10:41:26;35.20;55.60
9482;DHT22;4779;48.062;11.672;2023-07-09T10:43:58;35.50;63.70
9482;DHT22;4779;48.062;11.672;2023-07-09T10:46:28;35.60;54.90
9482;DHT22;4779;48.062;11.672;2023-07-09T10:48:57;35.60;58.00
9482;DHT22;4779;48.062;11.672;2023-07-09T10:51:28;35.50;58.00
9482;DHT22;4779;48.062;11.672;2023-07-09T10:53:59;35.60;55.00
9482;DHT22;4779;48.062;11.672;2023-07-09T10:56:31;35.50;58.60
9482;DHT22;4779;48.062;11.672;2023-07-09T10:59:06;35.50;53.10
9482;DHT22;4779;48.062;11.672;2023-07-09T11:01:40;35.50;59.10
9482;DHT22;4779;48.062;11.672;2023-07-09T11:04:24;35.80;58.30
9482;DHT22;4779;48.062;11.672;2023-07-09T11:06:53;36.10;55.00
9482;DHT22;4779;48.062;11.672;2023-07-09T11:09:27;36.30;54.50
9482;DHT22;4779;48.062;11.672;2023-07-09T11:11:58;36.00;51.70
9482;DHT22;4779;48.062;11.672;2023-07-09T11:14:31;36.20;56.60
9482;DHT22;4779;48.062;11.672;2023-07-09T11:16:59;36.50;56.40
9482;DHT22;4779;48.062;11.672;2023-07-09T11:19:27;36.50;56.00
9482;DHT22;4779;48.062;11.672;2023-07-09T11:22:04;36.70;56.40
9482;DHT22;4779;48.062;11.672;2023-07-09T11:24:43;36.70;54.40
9482;DHT22;4779;48.062;11.672;2023-07-09T11:27:20;36.70;54.80
9482;DHT22;4779;48.062;11.672;2023-07-09T11:29:55;36.60;51.30
9482;DHT22;4779;48.062;11.672;2023-07-09T11:32:25;36.40;53.70
9482;DHT22;4779;48.062;11.672;2023-07-09T11:34:53;36.50;52.70
9482;DHT22;4779;48.062;11.672;2023-07-09T11:37:24;36.40;48.70
9482;DHT22;4779;48.062;11.672;2023-07-09T11:39:52;36.50;54.30
9482;DHT22;4779;48.062;11.672;2023-07-09T11:42:27;36.30;51.60
9482;DHT22;4779;48.062;11.672;2023-07-09T11:45:02;36.30;56.20
9482;DHT22;4779;48.062;11.672;2023-07-09T11:47:33;36.30;48.90
9482;DHT22;4779;48.062;11.672;2023-07-09T11:50:03;36.40;48.90
9482;DHT22;4779;48.062;11.672;2023-07-09T11:52:34;36.20;49.80
9482;DHT22;4779;48.062;11.672;2023-07-09T11:55:25;36.30;53.70
9482;DHT22;4779;48.062;11.672;2023-07-09T11:57:54;36.40;54.10
9482;DHT22;4779;48.062;11.672;2023-07-09T12:00:21;36.70;51.60
9482;DHT22;4779;48.062;11.672;2023-07-09T12:02:48;37.00;48.10
9482;DHT22;4779;48.062;11.672;2023-07-09T12:05:19;37.00;48.90
9482;DHT22;4779;48.062;11.672;2023-07-09T12:07:48;37.10;50.80
9482;DHT22;4779;48.062;11.672;2023-07-09T12:10:20;36.90;48.50
9482;DHT22;4779;48.062;11.672;2023-07-09T12:12:48;36.90;49.80
9482;DHT22;4779;48.062;11.672;2023-07-09T12:15:18;37.00;51.90
9482;DHT22;4779;48.062;11.672;2023-07-09T12:17:56;37.10;46.50
9482;DHT22;4779;48.062;11.672;2023-07-09T12:20:23;36.90;52.70
9482;DHT22;4779;48.062;11.672;2023-07-09T12:22:50;37.10;47.70
9482;DHT22;4779;48.062;11.672;2023-07-09T12:25:22;37.20;49.40
9482;DHT22;4779;48.062;11.672;2023-07-09T12:27:50;37.40;50.50
9482;DHT22;4779;48.062;11.672;2023-07-09T12:30:17;37.70;54.10
9482;DHT22;4779;48.062;11.672;2023-07-09T12:32:44;37.80;48.70
9482;DHT22;4779;48.062;11.672;2023-07-09T12:35:13;37.70;49.70
9482;DHT22;4779;48.062;11.672;2023-07-09T12:37:42;37.40;49.70
9482;DHT22;4779;48.062;11.672;2023-07-09T12:40:14;37.30;51.00
9482;DHT22;4779;48.062;11.672;2023-07-09T12:42:44;37.60;53.70
9482;DHT22;4779;48.062;11.672;2023-07-09T12:45:16;37.70;50.40
9482;DHT22;4779;48.062;11.672;2023-07-09T12:47:45;37.80;51.00
9482;DHT22;4779;48.062;11.672;2023-07-09T12:50:23;37.60;49.30
9482;DHT22;4779;48.062;11.672;2023-07-09T12:52:55;36.90;49.50
9482;DHT22;4779;48.062;11.672;2023-07-09T12:55:24;35.80;51.90
9482;DHT22;4779;48.062;11.672;2023-07-09T12:57:55;35.10;52.60
9482;DHT22;4779;48.062;11.672;2023-07-09T13:00:25;34.50;52.10
9482;DHT22;4779;48.062;11.672;2023-07-09T13:02:54;33.90;55.30
9482;DHT22;4779;48.062;11.672;2023-07-09T13:05:23;33.40;55.80
9482;DHT22;4779;48.062;11.672;2023-07-09T13:07:52;33.10;53.80
9482;DHT22;4779;48.062;11.672;2023-07-09T13:10:22;33.60;57.10
9482;DHT22;4779;48.062;11.672;2023-07-09T13:12:54;34.30;59.30
9482;DHT22;4779;48.062;11.672;2023-07-09T13:15:27;34.40;60.30
9482;DHT22;4779;48.062;11.672;2023-07-09T13:18:00;34.20;56.50
9482;DHT22;4779;48.062;11.672;2023-07-09T13:20:28;33.80;55.00
9482;DHT22;4779;48.062;11.672;2023-07-09T13:22:57;33.30;53.70
9482;DHT22;4779;48.062;11.672;2023-07-09T13:25:24;33.10;54.10
9482;DHT22;4779;48.062;11.672;2023-07-09T13:27:53;32.80;57.30
9482;DHT22;4779;48.062;11.672;2023-07-09T13:30:20;32.70;56.80
9482;DHT22;4779;48.062;11.672;2023-07-09T13:32:48;32.70;58.20
9482;DHT22;4779;48.062;11.672;2023-07-09T13:35:17;33.10;57.30
9482;DHT22;4779;48.062;11.672;2023-07-09T13:37:45;33.80;56.00
9482;DHT22;4779;48.062;11.672;2023-07-09T13:40:13;34.50;53.50
9482;DHT22;4779;48.062;11.672;2023-07-09T13:42:40;34.90;51.60
9482;DHT22;4779;48.062;11.672;2023-07-09T13:45:21;35.30;52.80
9482;DHT22;4779;48.062;11.672;2023-07-09T13:47:49;35.50;48.40
9482;DHT22;4779;48.062;11.672;2023-07-09T13:50:16;35.40;50.10
9482;DHT22;4779;48.062;11.672;2023-07-09T13:52:43;35.40;50.20
9482;DHT22;4779;48.062;11.672;2023-07-09T13:55:18;35.50;49.40
9482;DHT22;4779;48.062;11.672;2023-07-09T13:57:45;35.60;48.20
9482;DHT22;4779;48.062;11.672;2023-07-09T14:00:13;35.40;48.90
9482;DHT22;4779;48.062;11.672;2023-07-09T14:02:41;35.30;47.50
9482;DHT22;4779;48.062;11.672;2023-07-09T14:05:12;35.30;50.00
9482;DHT22;4779;48.062;11.672;2023-07-09T14:07:41;35.40;49.60
9482;DHT22;4779;48.062;11.672;2023-07-09T14:10:11;35.70;53.60
9482;DHT22;4779;48.062;11.672;2023-07-09T14:12:40;35.80;51.20
9482;DHT22;4779;48.062;11.672;2023-07-09T14:15:12;35.70;51.00
9482;DHT22;4779;48.062;11.672;2023-07-09T14:17:41;35.80;51.50
9482;DHT22;4779;48.062;11.672;2023-07-09T14:20:11;35.90;49.50
9482;DHT22;4779;48.062;11.672;2023-07-09T14:22:40;35.80;49.50
9482;DHT22;4779;48.062;11.672;2023-07-09T14:25:15;35.70;51.80
9482;DHT22;4779;48.062;11.672;2023-07-09T14:27:42;35.80;49.30
9482;DHT22;4779;48.062;11.672;2023-07-09T14:30:14;35.60;50.90
9482;DHT22;4779;48.062;11.672;2023-07-09T14:32:44;35.60;48.90
9482;DHT22;4779;48.062;11.672;2023-07-09T14:35:14;35.40;48.40
9482;DHT22;4779;48.062;11.672;2023-07-09T14:37:44;35.40;50.80
9482;DHT22;4779;48.062;11.672;2023-07-09T14:40:16;35.30;54.50
9482;DHT22;4779;48.062;11.672;2023-07-09T14:42:57;35.30;49.50
9482;DHT22;4779;48.062;11.672;2023-07-09T14:45:27;35.10;48.00
9482;DHT22;4779;48.062;11.672;2023-07-09T14:47:57;34.90;49.60
9482;DHT22;4779;48.062;11.672;2023-07-09T14:50:24;34.80;49.60
9482;DHT22;4779;48.062;11.672;2023-07-09T14:52:52;34.70;51.00
9482;DHT22;4779;48.062;11.672;2023-07-09T14:55:21;34.60;50.80
9482;DHT22;4779;48.062;11.672;2023-07-09T14:57:49;34.30;50.00
9482;DHT22;4779;48.062;11.672;2023-07-09T15:00:18;34.10;50.90
9482;DHT22;4779;48.062;11.672;2023-07-09T15:05:51;33.70;52.50
9482;DHT22;4779;48.062;11.672;2023-07-09T15:08:21;33.50;52.10
9482;DHT22;4779;48.062;11.672;2023-07-09T15:10:50;33.40;51.70
9482;DHT22;4779;48.062;11.672;2023-07-09T15:13:19;33.30;51.10
9482;DHT22;4779;48.062;11.672;2023-07-09T15:15:59;33.20;51.40
9482;DHT22;4779;48.062;11.672;2023-07-09T15:18:26;33.20;51.00
9482;DHT22;4779;48.062;11.672;2023-07-09T15:20:57;33.20;51.10
9482;DHT22;4779;48.062;11.672;2023-07-09T15:23:25;33.20;52.40
9482;DHT22;4779;48.062;11.672;2023-07-09T15:25:52;33.20;52.70
9482;DHT22;4779;48.062;11.672;2023-07-09T15:28:31;33.20;51.00
9482;DHT22;4779;48.062;11.672;2023-07-09T15:30:58;33.20;51.50
9482;DHT22;4779;48.062;11.672;2023-07-09T15:33:35;33.10;50.90
9482;DHT22;4779;48.062;11.672;2023-07-09T15:36:10;33.10;51.50
9482;DHT22;4779;48.062;11.672;2023-07-09T15:38:37;32.90;51.40
9482;DHT22;4779;48.062;11.672;2023-07-09T15:41:07;32.90;52.90
9482;DHT22;4779;48.062;11.672;2023-07-09T15:43:37;32.80;51.70
9482;DHT22;4779;48.062;11.672;2023-07-09T15:46:04;32.70;51.60
9482;DHT22;4779;48.062;11.672;2023-07-09T15:48:33;32.60;52.20
9482;DHT22;4779;48.062;11.672;2023-07-09T15:51:01;32.60;50.90
9482;DHT22;4779;48.062;11.672;2023-07-09T15:53:45;32.60;51.00
9482;DHT22;4779;48.062;11.672;2023-07-09T15:56:18;32.60;51.80
9482;DHT22;4779;48.062;11.672;2023-07-09T15:58:47;32.60;51.30
9482;DHT22;4779;48.062;11.672;2023-07-09T16:01:15;32.50;51.60
9482;DHT22;4779;48.062;11.672;2023-07-09T16:03:46;32.50;52.30